Time;durP1;ratioP1;P1;durP2;ratioP2;P2;SDS_P1;SDS_P2;PMS_P1;PMS_P2;Temp;Humidity;BMP_temperature;BMP_pressure;BME280_temperature;BME280_humidity;BME280_pressure;Samples;Min_cycle;Max_cycle;Signal;HPM_P1;HPM_P2
2023/01/23 00:00:10;;;;;;;18.67;8.57;;;;;;;0.24;100.00;97298.53;5036518;28;20212;-67
2023/01/23 00:02:37;;;;;;;22.63;7.47;;;;;;;0.18;100.00;97308.44;5036413;28;20634;-66
2023/01/23 00:05:04;;;;;;;16.23;7.50;;;;;;;0.15;100.00;97312.03;5035528;28;20204;-68
2023/01/23 00:07:30;;;;;;;17.97;6.83;;;;;;;0.16;100.00;97308.47;5035786;28;20232;-66
2023/01/23 00:09:57;;;;;;;22.63;7.43;;;;;;;0.23;100.00;97309.81;5036257;28;20225;-65
2023/01/23 00:12:24;;;;;;;23.03;8.07;;;;;;;0.18;100.00;97304.06;5036136;28;20212;-67
2023/01/23 00:14:52;;;;;;;17.87;6.73;;;;;;;0.08;100.00;97305.50;5035180;28;20287;-66
2023/01/23 00:17:18;;;;;;;19.77;8.07;;;;;;;0.02;100.00;97305.84;5036603;28;20220;-68
2023/01/23 00:19:45;;;;;;;21.63;8.00;;;;;;;0.12;100.00;97307.00;5036367;28;20703;-66
2023/01/23 00:22:14;;;;;;;22.60;7.53;;;;;;;0.16;100.00;97305.06;5035757;28;20711;-67
2023/01/23 00:24:40;;;;;;;19.67;7.13;;;;;;;0.06;100.00;97307.38;5036035;28;20196;-69
2023/01/23 00:27:06;;;;;;;19.63;7.93;;;;;;;0.15;100.00;97306.00;5037015;28;20229;-67
2023/01/23 00:29:33;;;;;;;18.90;7.77;;;;;;;0.09;100.00;97304.59;5035088;28;20728;-67
2023/01/23 00:32:01;;;;;;;29.20;10.73;;;;;;;0.15;100.00;97312.03;5034973;28;20606;-67
2023/01/23 00:34:27;;;;;;;25.17;8.53;;;;;;;0.08;100.00;97310.69;5035343;28;20201;-66
2023/01/23 00:36:54;;;;;;;25.37;9.10;;;;;;;0.10;100.00;97303.69;5035685;28;20795;-66
2023/01/23 00:39:21;;;;;;;25.10;9.83;;;;;;;0.25;100.00;97307.13;5034879;28;20221;-67
2023/01/23 00:41:49;;;;;;;22.07;8.50;;;;;;;0.13;100.00;97313.84;5034919;28;20198;-67
2023/01/23 00:44:16;;;;;;;22.67;9.13;;;;;;;0.25;100.00;97314.91;5034769;28;20672;-67
2023/01/23 00:46:43;;;;;;;23.40;7.97;;;;;;;0.18;100.00;97322.22;5035096;28;20233;-67
2023/01/23 00:49:10;;;;;;;25.83;9.23;;;;;;;0.30;100.00;97316.31;5035522;28;20232;-67
2023/01/23 00:51:37;;;;;;;25.53;8.63;;;;;;;0.21;100.00;97316.00;5035463;28;20209;-67
2023/01/23 00:54:03;;;;;;;18.73;7.57;;;;;;;0.18;100.00;97317.03;5033785;28;20670;-67
2023/01/23 00:56:30;;;;;;;19.10;6.93;;;;;;;0.19;100.00;97316.09;5038877;28;20212;-68
2023/01/23 00:58:56;;;;;;;23.30;8.20;;;;;;;0.32;100.00;97324.84;5038764;28;20601;-67
2023/01/23 01:01:23;;;;;;;27.63;9.70;;;;;;;0.31;100.00;97325.75;5039267;28;20234;-67
2023/01/23 01:03:50;;;;;;;21.17;7.60;;;;;;;0.25;100.00;97323.50;5038623;28;20197;-66
2023/01/23 01:06:17;;;;;;;22.73;8.53;;;;;;;0.38;100.00;97331.41;5038610;28;20596;-66
2023/01/23 01:08:44;;;;;;;22.47;8.13;;;;;;;0.35;100.00;97327.25;5038664;28;20228;-67
2023/01/23 01:11:11;;;;;;;22.93;8.70;;;;;;;0.29;100.00;97332.78;5038903;28;20335;-66
2023/01/23 01:13:37;;;;;;;21.03;7.97;;;;;;;0.33;100.00;97336.88;5038036;28;20205;-67
2023/01/23 01:16:05;;;;;;;22.97;8.30;;;;;;;0.33;100.00;97339.47;5038542;28;20198;-67
2023/01/23 01:18:31;;;;;;;22.23;8.37;;;;;;;0.28;100.00;97344.09;5038632;28;20221;-67
2023/01/23 01:20:58;;;;;;;24.67;9.30;;;;;;;0.32;100.00;97348.16;5039193;28;20209;-67
2023/01/23 01:23:27;;;;;;;21.53;8.23;;;;;;;0.40;100.00;97338.19;5038165;28;20456;-66
2023/01/23 01:25:57;;;;;;;21.97;8.10;;;;;;;0.24;100.00;97337.41;5037810;28;20392;-67
2023/01/23 01:28:26;;;;;;;20.93;8.33;;;;;;;0.27;100.00;97337.22;5038748;28;20522;-67
2023/01/23 01:30:52;;;;;;;23.57;8.33;;;;;;;0.35;100.00;97350.56;5037897;28;20212;-68
2023/01/23 01:33:18;;;;;;;22.90;8.83;;;;;;;0.36;100.00;97341.88;5038428;28;20211;-67
2023/01/23 01:35:45;;;;;;;20.73;8.50;;;;;;;0.36;100.00;97336.69;5037978;28;20212;-67
2023/01/23 01:38:11;;;;;;;23.83;8.40;;;;;;;0.34;100.00;97337.69;5038235;28;20634;-67
2023/01/23 01:40:39;;;;;;;18.87;8.17;;;;;;;0.45;100.00;97351.72;5037331;28;20209;-67
2023/01/23 01:43:08;;;;;;;19.80;7.90;;;;;;;0.50;100.00;97347.09;5038602;28;20620;-67
2023/01/23 01:46:13;;;;;;;19.87;8.07;;;;;;;0.63;100.00;97346.25;5037805;28;20209;-67
2023/01/23 01:48:45;;;;;;;20.03;6.70;;;;;;;0.45;100.00;97349.13;5037528;28;20224;-67
2023/01/23 01:51:18;;;;;;;15.57;6.63;;;;;;;0.52;100.00;97345.22;5037987;28;20941;-67
2023/01/23 01:53:49;;;;;;;18.90;7.03;;;;;;;0.55;100.00;97349.41;5037460;28;20208;-67
2023/01/23 01:56:18;;;;;;;16.40;7.07;;;;;;;0.51;100.00;97351.38;5037907;28;20239;-67
2023/01/23 01:58:48;;;;;;;14.37;6.47;;;;;;;0.53;100.00;97354.69;5038076;28;20312;-67
2023/01/23 02:01:15;;;;;;;21.97;7.73;;;;;;;0.41;100.00;97350.22;5038507;28;20744;-67
2023/01/23 02:03:44;;;;;;;21.70;8.03;;;;;;;0.34;100.00;97363.63;5037062;28;20205;-66
2023/01/23 02:06:12;;;;;;;16.00;6.07;;;;;;;0.28;100.00;97354.44;5036903;28;20906;-66
2023/01/23 02:08:47;;;;;;;16.53;6.87;;;;;;;0.38;100.00;97349.56;5037674;28;20235;-66
2023/01/23 02:11:15;;;;;;;18.10;7.03;;;;;;;0.22;100.00;97354.78;5037134;28;20208;-67
2023/01/23 02:13:44;;;;;;;13.67;5.90;;;;;;;0.39;100.00;97354.66;5036749;28;20212;-67
2023/01/23 02:16:14;;;;;;;14.53;7.07;;;;;;;0.43;100.00;97353.53;5037458;28;20339;-66
2023/01/23 02:18:44;;;;;;;16.57;7.60;;;;;;;0.50;100.00;97356.59;5037345;28;20217;-67
2023/01/23 02:21:12;;;;;;;18.17;6.80;;;;;;;0.50;100.00;97354.88;5037262;28;20924;-66
2023/01/23 02:23:53;;;;;;;16.43;6.50;;;;;;;0.62;100.00;97348.94;5037097;28;20208;-67
2023/01/23 02:26:25;;;;;;;15.07;6.67;;;;;;;0.59;100.00;97349.97;5036564;28;20197;-67
2023/01/23 02:28:54;;;;;;;17.60;7.10;;;;;;;0.53;100.00;97344.31;5036888;28;20586;-67
2023/01/23 02:31:21;;;;;;;20.83;7.83;;;;;;;0.58;100.00;97342.28;5037315;28;20201;-68
2023/01/23 02:33:51;;;;;;;17.20;6.80;;;;;;;0.63;100.00;97342.84;5036008;28;20303;-66
2023/01/23 02:36:21;;;;;;;17.67;7.07;;;;;;;0.53;100.00;97344.31;5037309;28;20216;-66
2023/01/23 02:39:01;;;;;;;15.03;6.97;;;;;;;0.57;100.00;97339.78;5036847;28;20229;-66
2023/01/23 02:41:31;;;;;;;18.53;7.83;;;;;;;0.35;100.00;97329.00;5037047;28;20385;-67
2023/01/23 02:44:01;;;;;;;20.00;7.87;;;;;;;0.39;100.00;97333.09;5036191;28;20551;-68
2023/01/23 02:46:28;;;;;;;20.50;7.57;;;;;;;0.22;100.00;97339.25;5037047;28;20194;-68
2023/01/23 02:48:54;;;;;;;22.87;8.53;;;;;;;0.28;100.00;97332.84;5036963;28;20224;-67
2023/01/23 02:51:21;;;;;;;18.10;7.07;;;;;;;0.31;100.00;97327.53;5036184;28;20197;-67
2023/01/23 02:53:48;;;;;;;18.93;7.27;;;;;;;0.43;100.00;97327.63;5037035;28;21487;-67
2023/01/23 02:56:15;;;;;;;16.30;6.30;;;;;;;0.47;100.00;97323.94;5036702;28;20209;-68
2023/01/23 03:01:27;;;;;;;20.47;7.90;;;;;;;0.49;100.00;97314.31;5036804;28;20220;-67
2023/01/23 03:03:55;;;;;;;19.80;8.50;;;;;;;0.47;100.00;97316.16;5035883;28;20748;-67
2023/01/23 03:06:22;;;;;;;23.70;8.67;;;;;;;0.49;100.00;97321.25;5036124;28;20666;-67
2023/01/23 03:08:48;;;;;;;20.00;7.13;;;;;;;0.45;100.00;97318.00;5036204;28;20316;-67
2023/01/23 03:11:16;;;;;;;20.47;7.13;;;;;;;0.53;100.00;97318.38;5036556;28;20459;-69
2023/01/23 03:13:45;;;;;;;22.80;7.87;;;;;;;0.54;100.00;97324.41;5035596;28;20209;-67
2023/01/23 03:16:11;;;;;;;15.97;7.70;;;;;;;0.49;100.00;97326.44;5036423;28;20197;-68
2023/01/23 03:18:38;;;;;;;17.27;7.33;;;;;;;0.41;100.00;97318.25;5035115;28;20500;-69
2023/01/23 03:21:06;;;;;;;21.60;8.40;;;;;;;0.44;100.00;97318.91;5036180;28;20208;-69
2023/01/23 03:23:33;;;;;;;20.13;8.00;;;;;;;0.43;100.00;97326.78;5035954;28;20221;-68
2023/01/23 03:26:00;;;;;;;21.97;8.67;;;;;;;0.42;100.00;97328.56;5036111;28;20320;-67
2023/01/23 03:31:12;;;;;;;19.87;6.73;;;;;;;0.39;100.00;97330.50;5036263;28;20238;-68
2023/01/23 03:33:42;;;;;;;19.27;7.50;;;;;;;0.20;100.00;97332.47;5035501;28;20208;-67
2023/01/23 03:36:09;;;;;;;23.50;7.83;;;;;;;0.20;100.00;97348.03;5035700;28;20201;-67
2023/01/23 03:38:36;;;;;;;19.50;7.20;;;;;;;0.12;100.00;97343.28;5036012;28;20243;-68
2023/01/23 03:43:46;;;;;;;19.00;7.67;;;;;;;0.21;100.00;97357.47;5035087;28;20204;-67
2023/01/23 03:46:14;;;;;;;16.20;6.90;;;;;;;0.20;100.00;97369.59;5035877;28;20204;-67
2023/01/23 03:48:41;;;;;;;19.23;7.03;;;;;;;0.07;100.00;97365.19;5035534;28;20221;-67
2023/01/23 03:51:07;;;;;;;17.53;6.80;;;;;;;0.13;100.00;97370.88;5035530;28;20728;-68
2023/01/23 03:53:34;;;;;;;15.97;6.30;;;;;;;0.23;100.00;97381.53;5035487;28;20205;-68
2023/01/23 03:56:00;;;;;;;26.63;7.20;;;;;;;0.24;100.00;97376.28;5035680;28;20248;-67
2023/01/23 03:58:29;;;;;;;19.80;8.23;;;;;;;0.28;100.00;97380.38;5035676;28;20251;-68
2023/01/23 04:00:55;;;;;;;16.50;5.60;;;;;;;0.19;100.00;97380.91;5036059;28;20305;-67
2023/01/23 04:03:23;;;;;;;16.17;6.60;;;;;;;0.12;100.00;97389.91;5035798;28;20201;-67
2023/01/23 04:05:55;;;;;;;20.77;7.70;;;;;;;0.16;100.00;97381.03;5035046;28;20201;-67
2023/01/23 04:08:22;;;;;;;16.60;7.23;;;;;;;0.07;100.00;97389.34;5035320;28;20224;-67
2023/01/23 04:10:49;;;;;;;18.60;7.30;;;;;;;0.02;100.00;97388.75;5035231;28;20201;-66
2023/01/23 04:13:15;;;;;;;15.47;6.00;;;;;;;-0.10;100.00;97380.88;5036179;28;20208;-67
2023/01/23 04:15:42;;;;;;;18.80;6.73;;;;;;;-0.15;100.00;97390.63;5034824;28;20205;-67
2023/01/23 04:18:09;;;;;;;15.53;6.93;;;;;;;-0.17;100.00;97382.09;5035056;28;20224;-67
2023/01/23 04:20:37;;;;;;;17.20;6.83;;;;;;;-0.09;100.00;97368.72;5035798;28;20205;-67
2023/01/23 04:23:04;;;;;;;16.70;6.57;;;;;;;-0.17;100.00;97365.75;5036068;28;20581;-66
2023/01/23 04:25:30;;;;;;;15.93;6.63;;;;;;;-0.16;100.00;97368.25;5034679;28;20595;-68
2023/01/23 04:27:57;;;;;;;17.77;7.47;;;;;;;-0.21;100.00;97372.84;5035361;28;20225;-67
2023/01/23 04:30:23;;;;;;;19.20;7.23;;;;;;;-0.35;100.00;97371.94;5038943;28;21375;-66
2023/01/23 04:32:50;;;;;;;18.37;7.13;;;;;;;-0.55;100.00;97369.59;5039352;28;20207;-67
2023/01/23 04:35:17;;;;;;;21.13;7.47;;;;;;;-0.46;100.00;97363.91;5038875;28;20691;-67
2023/01/23 04:37:44;;;;;;;16.53;6.90;;;;;;;-0.51;100.00;97373.69;5039247;28;20198;-67
2023/01/23 04:40:12;;;;;;;16.33;6.27;;;;;;;-0.50;100.00;97368.44;5039119;28;20201;-67
2023/01/23 04:42:38;;;;;;;22.83;8.03;;;;;;;-0.59;100.00;97373.25;5039198;28;20209;-66
2023/01/23 04:45:06;;;;;;;16.27;6.60;;;;;;;-0.43;100.00;97374.94;5038087;28;20211;-66
2023/01/23 04:47:32;;;;;;;22.23;7.13;;;;;;;-0.50;100.00;97373.63;5038741;28;20300;-65
2023/01/23 04:49:59;;;;;;;22.23;8.17;;;;;;;-0.61;100.00;97372.53;5039299;28;20204;-65
2023/01/23 04:52:25;;;;;;;25.43;8.07;;;;;;;-0.65;100.00;97375.34;5039000;28;20205;-67
2023/01/23 04:54:53;;;;;;;14.17;6.17;;;;;;;-0.55;100.00;97374.75;5037925;28;20205;-65
2023/01/23 04:57:20;;;;;;;16.40;5.70;;;;;;;-0.57;100.00;97379.22;5038584;28;20208;-67
2023/01/23 04:59:46;;;;;;;20.73;6.67;;;;;;;-0.57;100.00;97377.44;5039051;28;20544;-67
2023/01/23 05:02:13;;;;;;;19.33;6.63;;;;;;;-0.63;100.00;97382.13;5038563;28;20201;-65
2023/01/23 05:04:39;;;;;;;16.03;6.37;;;;;;;-0.64;100.00;97380.44;5037987;28;20205;-68
2023/01/23 05:07:08;;;;;;;18.60;6.17;;;;;;;-0.56;100.00;97384.28;5038540;28;20678;-67
2023/01/23 05:09:34;;;;;;;27.20;7.47;;;;;;;-0.52;100.00;97383.22;5038125;28;20312;-66
2023/01/23 05:12:02;;;;;;;19.03;7.20;;;;;;;-0.41;100.00;97382.63;5039053;28;20560;-66
2023/01/23 05:14:28;;;;;;;19.63;7.10;;;;;;;-0.41;100.00;97377.44;5039802;28;20197;-67
2023/01/23 05:16:55;;;;;;;20.17;6.37;;;;;;;-0.45;100.00;97381.13;5038778;28;21416;-66
2023/01/23 05:19:22;;;;;;;21.57;7.10;;;;;;;-0.36;100.00;97388.38;5038918;28;20217;-66
2023/01/23 05:21:49;;;;;;;24.53;7.33;;;;;;;-0.34;100.00;97382.22;5039442;28;20209;-68
2023/01/23 05:24:16;;;;;;;19.03;6.97;;;;;;;-0.36;100.00;97386.63;5038789;28;20201;-66
2023/01/23 05:26:42;;;;;;;15.23;6.40;;;;;;;-0.33;100.00;97401.16;5038692;28;20201;-67
2023/01/23 05:29:10;;;;;;;21.00;7.60;;;;;;;-0.45;100.00;97394.88;5039216;28;20228;-68
2023/01/23 05:31:36;;;;;;;14.70;5.83;;;;;;;-0.48;100.00;97402.84;5038966;28;20213;-66
2023/01/23 05:34:03;;;;;;;17.97;5.67;;;;;;;-0.58;100.00;97416.34;5037724;28;20201;-65
2023/01/23 05:36:29;;;;;;;22.47;8.23;;;;;;;-0.59;100.00;97405.19;5039016;28;20255;-66
2023/01/23 05:38:57;;;;;;;19.10;6.33;;;;;;;-0.44;100.00;97412.09;5039008;28;20708;-68
2023/01/23 05:41:23;;;;;;;21.47;7.03;;;;;;;-0.37;100.00;97415.19;5037682;28;20201;-65
2023/01/23 05:43:50;;;;;;;17.90;6.37;;;;;;;-0.37;100.00;97420.38;5037327;28;20665;-66
2023/01/23 05:46:18;;;;;;;19.47;6.93;;;;;;;-0.23;100.00;97426.50;5038754;28;20196;-66
2023/01/23 05:48:44;;;;;;;19.07;6.33;;;;;;;-0.27;100.00;97429.31;5037798;28;20225;-67
2023/01/23 05:51:11;;;;;;;16.83;6.73;;;;;;;-0.41;100.00;97431.81;5038030;28;20680;-67
2023/01/23 05:53:37;;;;;;;17.63;6.47;;;;;;;-0.58;100.00;97434.47;5037562;28;20201;-66
2023/01/23 05:56:06;;;;;;;21.10;7.83;;;;;;;-0.39;100.00;97437.75;5038062;28;20213;-67
2023/01/23 05:58:32;;;;;;;20.97;7.13;;;;;;;-0.36;100.00;97445.34;5038151;28;20217;-67
2023/01/23 06:00:59;;;;;;;25.63;8.60;;;;;;;-0.46;100.00;97445.03;5037889;28;20790;-67
2023/01/23 06:03:27;;;;;;;20.40;7.00;;;;;;;-0.37;100.00;97441.94;5037847;28;20201;-66
2023/01/23 06:05:54;;;;;;;25.30;7.57;;;;;;;-0.58;100.00;97442.25;5037059;28;20216;-67
2023/01/23 06:08:20;;;;;;;19.93;7.10;;;;;;;-0.44;100.00;97439.75;5037306;28;20225;-66
2023/01/23 06:10:47;;;;;;;19.13;7.10;;;;;;;-0.48;100.00;97428.72;5037816;28;20565;-66
2023/01/23 06:13:13;;;;;;;19.43;7.20;;;;;;;-0.61;100.00;97443.22;5038203;28;20209;-65
2023/01/23 06:15:40;;;;;;;17.07;6.97;;;;;;;-0.63;100.00;97441.63;5037386;28;20202;-67
2023/01/23 06:18:07;;;;;;;19.13;6.67;;;;;;;-0.46;100.00;97436.41;5037863;28;20215;-67
2023/01/23 06:20:34;;;;;;;18.63;7.03;;;;;;;-0.39;100.00;97437.75;5037915;28;20205;-67
2023/01/23 06:23:01;;;;;;;17.77;6.77;;;;;;;-0.50;100.00;97445.25;5038200;28;20201;-67
2023/01/23 06:25:28;;;;;;;21.97;7.43;;;;;;;-0.47;100.00;97452.84;5037450;28;20201;-66
2023/01/23 06:27:54;;;;;;;17.13;6.57;;;;;;;-0.52;100.00;97454.88;5037758;28;20580;-68
2023/01/23 06:30:21;;;;;;;19.27;6.53;;;;;;;-0.52;100.00;97447.09;5037787;28;20211;-66
2023/01/23 06:32:47;;;;;;;17.80;6.03;;;;;;;-0.50;100.00;97445.25;5037425;28;20212;-66
2023/01/23 06:35:14;;;;;;;14.13;6.23;;;;;;;-0.41;100.00;97455.13;5036763;28;20205;-66
2023/01/23 06:37:41;;;;;;;19.43;6.80;;;;;;;-0.24;100.00;97463.66;5037607;28;20216;-67
2023/01/23 06:40:11;;;;;;;14.93;5.70;;;;;;;-0.22;100.00;97455.81;5037848;28;20200;-67
2023/01/23 06:42:38;;;;;;;17.30;7.23;;;;;;;-0.15;100.00;97457.13;5036811;28;20207;-67
2023/01/23 06:45:06;;;;;;;20.43;7.33;;;;;;;-0.18;100.00;97452.13;5035771;28;20200;-67
2023/01/23 06:47:32;;;;;;;24.57;7.83;;;;;;;-0.11;100.00;97454.31;5036267;28;20212;-67
2023/01/23 06:50:00;;;;;;;15.83;5.77;;;;;;;-0.11;100.00;97461.25;5036828;28;20264;-66
2023/01/23 06:52:27;;;;;;;20.20;6.50;;;;;;;-0.06;100.00;97459.22;5036776;28;20205;-67
2023/01/23 06:54:55;;;;;;;17.63;6.93;;;;;;;-0.01;100.00;97458.06;5036420;28;20216;-66
2023/01/23 06:57:22;;;;;;;16.40;6.67;;;;;;;-0.02;100.00;97465.00;5036893;28;20197;-67
2023/01/23 06:59:49;;;;;;;13.00;4.93;;;;;;;-0.04;100.00;97454.81;5035802;28;20274;-66
2023/01/23 07:02:15;;;;;;;18.13;6.90;;;;;;;-0.11;100.00;97464.66;5035579;28;20197;-67
2023/01/23 07:04:42;;;;;;;15.87;6.40;;;;;;;-0.07;100.00;97465.34;5034099;28;20201;-66
2023/01/23 07:07:08;;;;;;;17.53;6.50;;;;;;;-0.06;100.00;97472.16;5035321;28;20228;-66
2023/01/23 07:09:35;;;;;;;19.27;6.73;;;;;;;0.01;100.00;97467.44;5034758;28;20607;-66
2023/01/23 07:12:03;;;;;;;16.23;6.23;;;;;;;0.02;100.00;97476.84;5035085;28;20211;-67
2023/01/23 07:14:29;;;;;;;21.90;6.80;;;;;;;-0.12;100.00;97467.34;5035705;28;20562;-67
2023/01/23 07:16:56;;;;;;;17.93;6.63;;;;;;;-0.06;100.00;97456.63;5035993;28;20984;-66
2023/01/23 07:19:23;;;;;;;18.13;6.50;;;;;;;-0.44;100.00;97461.28;5035881;28;20223;-66
2023/01/23 07:21:49;;;;;;;15.93;6.47;;;;;;;-0.33;100.00;97455.53;5034735;28;20556;-66
2023/01/23 07:24:16;;;;;;;20.30;7.60;;;;;;;-0.29;100.00;97459.66;5034506;28;20210;-67
2023/01/23 07:26:42;;;;;;;30.17;7.70;;;;;;;-0.24;100.00;97457.63;5035067;28;20714;-67
2023/01/23 07:29:10;;;;;;;14.53;6.90;;;;;;;-0.21;100.00;97454.88;5035452;28;20708;-67
2023/01/23 07:31:37;;;;;;;22.20;7.00;;;;;;;-0.26;100.00;97459.47;5035553;28;20203;-66
2023/01/23 07:34:03;;;;;;;17.40;6.70;;;;;;;-0.22;100.00;97468.75;5034697;28;20196;-67
2023/01/23 07:36:30;;;;;;;24.40;8.87;;;;;;;-0.11;100.00;97466.44;5034781;28;20216;-66
2023/01/23 07:38:57;;;;;;;25.23;8.43;;;;;;;-0.08;100.00;97463.66;5035653;28;20220;-66
2023/01/23 07:41:24;;;;;;;17.53;6.83;;;;;;;-0.02;100.00;97455.56;5035693;28;20577;-66
2023/01/23 07:43:50;;;;;;;21.47;8.10;;;;;;;-0.19;100.00;97455.63;5034932;28;20670;-67
2023/01/23 07:46:19;;;;;;;26.43;7.90;;;;;;;-0.05;100.00;97464.34;5035663;28;20201;-66
2023/01/23 07:48:45;;;;;;;17.57;6.97;;;;;;;-0.01;100.00;97458.91;5035348;28;20431;-67
2023/01/23 07:51:14;;;;;;;16.37;6.90;;;;;;;-0.03;100.00;97472.03;5035906;28;20201;-66
2023/01/23 07:53:40;;;;;;;17.03;6.97;;;;;;;-0.03;100.00;97461.66;5035260;28;20966;-66
2023/01/23 07:56:08;;;;;;;18.07;6.27;;;;;;;0.12;100.00;97457.28;5035636;28;20213;-67
2023/01/23 07:58:35;;;;;;;20.73;7.83;;;;;;;0.02;100.00;97458.72;5034298;28;20224;-66
2023/01/23 08:01:07;;;;;;;17.77;7.20;;;;;;;0.22;100.00;97453.28;5036139;28;20235;-66
2023/01/23 08:03:35;;;;;;;20.70;8.13;;;;;;;0.32;100.00;97459.63;5035237;28;20251;-66
2023/01/23 08:06:01;;;;;;;19.50;8.07;;;;;;;0.38;100.00;97454.09;5035132;28;20205;-67
2023/01/23 08:08:29;;;;;;;17.47;7.30;;;;;;;0.18;100.00;97462.16;5036465;28;20602;-66
2023/01/23 08:10:55;;;;;;;17.73;6.67;;;;;;;0.35;100.00;97466.41;5035182;28;20961;-66
2023/01/23 08:13:22;;;;;;;16.37;6.60;;;;;;;0.38;100.00;97474.84;5034011;28;20288;-66
2023/01/23 08:15:48;;;;;;;12.23;5.27;;;;;;;0.21;100.00;97466.31;5035525;28;20212;-67
2023/01/23 08:18:15;;;;;;;13.97;6.17;;;;;;;0.38;100.00;97477.44;5035739;28;20598;-66
2023/01/23 08:20:43;;;;;;;17.10;6.37;;;;;;;0.57;100.00;97479.81;5035267;28;20315;-66
2023/01/23 08:23:09;;;;;;;17.13;7.20;;;;;;;0.37;100.00;97455.03;5036035;28;20235;-65
2023/01/23 08:25:38;;;;;;;19.90;6.70;;;;;;;0.50;100.00;97456.00;5035709;28;20219;-67
2023/01/23 08:28:05;;;;;;;17.33;6.73;;;;;;;0.26;100.00;97456.53;5034923;28;20282;-67
2023/01/23 08:30:31;;;;;;;13.00;5.83;;;;;;;0.38;100.00;97464.47;5035357;28;20228;-67
2023/01/23 08:32:58;;;;;;;14.97;5.03;;;;;;;0.33;100.00;97469.06;5035762;28;20205;-67
2023/01/23 08:35:25;;;;;;;20.53;7.23;;;;;;;0.13;100.00;97468.50;5034922;28;20201;-67
2023/01/23 08:37:53;;;;;;;10.57;4.43;;;;;;;0.38;100.00;97474.84;5035868;28;20212;-65
2023/01/23 08:40:19;;;;;;;9.70;4.67;;;;;;;0.27;100.00;97478.97;5036370;28;20945;-65
2023/01/23 08:42:46;;;;;;;14.67;4.50;;;;;;;0.17;100.00;97486.38;5035622;28;20247;-66
2023/01/23 08:45:12;;;;;;;14.47;5.50;;;;;;;0.22;100.00;97484.38;5035690;28;20205;-67
2023/01/23 08:47:39;;;;;;;15.53;6.50;;;;;;;0.31;100.00;97496.81;5036251;28;20216;-66
2023/01/23 08:50:07;;;;;;;21.20;5.77;;;;;;;0.47;100.00;97492.47;5035600;28;20221;-67
2023/01/23 08:52:34;;;;;;;12.00;5.77;;;;;;;0.42;100.00;97480.66;5035167;28;20208;-66
2023/01/23 08:55:02;;;;;;;18.47;7.13;;;;;;;0.62;100.00;97483.81;5034356;28;20664;-67
2023/01/23 08:57:28;;;;;;;15.63;4.93;;;;;;;0.50;100.00;97484.50;5034612;28;20213;-67
2023/01/23 08:59:55;;;;;;;14.83;5.90;;;;;;;0.47;100.00;97469.16;5034573;28;21056;-66
2023/01/23 09:02:21;;;;;;;14.50;5.80;;;;;;;0.60;100.00;97470.13;5035870;28;20213;-67
2023/01/23 09:04:48;;;;;;;19.37;6.93;;;;;;;0.64;100.00;97466.41;5033580;28;20205;-67
2023/01/23 09:07:14;;;;;;;12.87;5.73;;;;;;;0.71;100.00;97460.78;5035829;28;20209;-65
2023/01/23 09:09:41;;;;;;;9.77;4.10;;;;;;;0.85;100.00;97470.34;5035495;28;20309;-67
2023/01/23 09:12:09;;;;;;;16.33;5.87;;;;;;;0.85;100.00;97476.41;5035708;28;20216;-67
2023/01/23 09:14:35;;;;;;;3.07;1.70;;;;;;;0.61;100.00;97476.94;5034561;28;20209;-66
2023/01/23 09:17:02;;;;;;;16.43;6.57;;;;;;;0.49;100.00;97485.44;5039149;28;20201;-66
2023/01/23 09:19:30;;;;;;;14.63;5.63;;;;;;;0.65;100.00;97486.25;5039476;28;20231;-66
2023/01/23 09:21:57;;;;;;;20.47;6.77;;;;;;;0.60;100.00;97470.13;5038636;28;20201;-67
2023/01/23 09:24:23;;;;;;;10.87;4.90;;;;;;;0.54;100.00;97474.81;5038167;28;20205;-66
2023/01/23 09:26:50;;;;;;;10.67;4.57;;;;;;;0.72;100.00;97474.59;5039285;28;20208;-67
2023/01/23 09:29:17;;;;;;;20.00;7.30;;;;;;;0.80;100.00;97467.19;5037951;28;20229;-66
2023/01/23 09:31:44;;;;;;;12.43;5.03;;;;;;;0.90;100.00;97483.91;5038433;28;20209;-66
2023/01/23 09:34:11;;;;;;;14.13;5.07;;;;;;;1.05;100.00;97473.47;5038286;28;20206;-67
2023/01/23 09:36:37;;;;;;;16.93;6.80;;;;;;;1.09;100.00;97469.75;5038646;28;20201;-67
2023/01/23 09:39:04;;;;;;;17.80;6.77;;;;;;;1.27;100.00;97468.66;5038369;28;20221;-67
2023/01/23 09:41:31;;;;;;;20.60;7.20;;;;;;;1.03;100.00;97484.84;5039330;28;20339;-66
2023/01/23 09:44:01;;;;;;;17.70;5.60;;;;;;;1.29;100.00;97490.19;5036754;28;20674;-67
2023/01/23 09:46:35;;;;;;;19.17;6.23;;;;;;;1.26;100.00;97488.63;5037630;28;20212;-67
2023/01/23 09:49:06;;;;;;;18.30;6.30;;;;;;;3.47;100.00;97484.63;5038310;28;20221;-67
2023/01/23 09:51:47;;;;;;;18.00;6.70;;;;;;;2.08;98.39;97477.47;5038982;28;20224;-66
2023/01/23 09:54:21;;;;;;;17.20;6.90;;;;;;;1.63;100.00;97471.66;5037994;28;20200;-67
2023/01/23 09:56:49;;;;;;;20.77;7.30;;;;;;;1.45;100.00;97478.81;5037798;28;20580;-67
2023/01/23 09:59:27;;;;;;;19.00;6.93;;;;;;;1.37;100.00;97480.19;5038688;28;20700;-67
2023/01/23 10:01:56;;;;;;;17.97;6.77;;;;;;;1.21;100.00;97476.84;5038543;28;20197;-67
2023/01/23 10:04:23;;;;;;;18.63;6.83;;;;;;;1.22;100.00;97476.75;5037526;28;20683;-67
2023/01/23 10:07:13;;;;;;;16.87;6.67;;;;;;;1.44;100.00;97469.34;5038715;28;20275;-66
2023/01/23 10:09:53;;;;;;;19.37;6.73;;;;;;;1.39;100.00;97462.75;5038260;28;20228;-66
2023/01/23 10:12:32;;;;;;;17.23;6.20;;;;;;;1.48;100.00;97468.22;5038484;28;20394;-67
2023/01/23 10:15:26;;;;;;;14.73;6.73;;;;;;;1.37;100.00;97465.44;5037633;28;20200;-67
2023/01/23 10:18:02;;;;;;;21.27;7.37;;;;;;;1.28;100.00;97455.59;5029073;28;20202;-66
2023/01/23 10:20:49;;;;;;;13.63;5.80;;;;;;;1.44;100.00;97455.50;5037902;28;20205;-67
2023/01/23 10:23:31;;;;;;;13.80;5.20;;;;;;;1.45;100.00;97450.25;5038520;28;20196;-66
2023/01/23 10:25:58;;;;;;;19.53;7.40;;;;;;;1.27;100.00;97453.09;5037086;28;20255;-66
2023/01/23 10:28:33;;;;;;;17.83;7.23;;;;;;;1.29;100.00;97444.28;5038226;28;20820;-66
2023/01/23 10:31:03;;;;;;;10.50;5.17;;;;;;;1.31;100.00;97445.03;5037701;28;20221;-67
2023/01/23 10:33:40;;;;;;;23.13;7.03;;;;;;;1.50;100.00;97440.41;5037380;28;20205;-67
2023/01/23 10:36:18;;;;;;;12.27;4.33;;;;;;;1.69;100.00;97440.94;5038050;28;20209;-66
2023/01/23 10:38:49;;;;;;;24.83;7.53;;;;;;;1.65;100.00;97439.44;5038248;28;20217;-67
2023/01/23 10:41:18;;;;;;;18.53;6.83;;;;;;;1.77;100.00;97432.66;5037335;28;20198;-66
2023/01/23 10:43:48;;;;;;;16.57;7.23;;;;;;;1.67;100.00;97429.81;5036885;28;20229;-66
2023/01/23 10:46:17;;;;;;;11.60;5.00;;;;;;;1.33;100.00;97439.75;5038323;28;20198;-67
2023/01/23 10:48:46;;;;;;;16.73;6.03;;;;;;;1.47;100.00;97440.56;5037569;28;20221;-66
2023/01/23 10:51:35;;;;;;;17.23;7.13;;;;;;;1.60;100.00;97420.72;5037686;28;20221;-65
2023/01/23 10:54:03;;;;;;;12.73;5.73;;;;;;;1.66;100.00;97430.75;5037014;28;20654;-67
2023/01/23 10:56:31;;;;;;;18.03;6.23;;;;;;;1.49;100.00;97423.16;5037628;28;20228;-67
2023/01/23 10:59:00;;;;;;;19.93;7.20;;;;;;;1.65;100.00;97421.28;5037320;28;20273;-67
2023/01/23 11:01:29;;;;;;;20.20;6.47;;;;;;;1.60;100.00;97418.13;5037625;28;20197;-67
2023/01/23 11:04:08;;;;;;;14.53;4.20;;;;;;;1.49;100.00;97417.97;5036450;28;20673;-68
2023/01/23 11:06:35;;;;;;;21.20;6.70;;;;;;;1.44;100.00;97429.53;5037550;28;20201;-67
2023/01/23 11:09:03;;;;;;;22.60;7.67;;;;;;;1.49;100.00;97422.31;5036971;28;20231;-66
2023/01/23 11:11:32;;;;;;;19.23;7.80;;;;;;;1.51;100.00;97403.09;5037250;28;20252;-66
2023/01/23 11:14:07;;;;;;;12.93;5.13;;;;;;;1.56;100.00;97395.03;5035650;28;20582;-65
2023/01/23 11:16:35;;;;;;;16.53;6.63;;;;;;;1.44;100.00;97393.19;5037123;28;20211;-67
2023/01/23 11:19:16;;;;;;;23.97;7.37;;;;;;;1.60;100.00;97404.31;5037044;28;20225;-67
2023/01/23 11:21:52;;;;;;;20.50;7.17;;;;;;;1.67;100.00;97406.44;5036827;28;20198;-67
2023/01/23 11:24:20;;;;;;;12.63;5.93;;;;;;;1.83;100.00;97397.59;5036285;28;20568;-67
2023/01/23 11:26:47;;;;;;;17.43;6.97;;;;;;;1.80;100.00;97397.75;5036098;28;21308;-68
2023/01/23 11:29:22;;;;;;;16.50;6.97;;;;;;;1.96;100.00;97382.03;5036464;28;20225;-65
2023/01/23 11:31:51;;;;;;;20.13;7.93;;;;;;;1.82;100.00;97389.91;5036453;28;20237;-66
2023/01/23 11:34:24;;;;;;;22.13;7.13;;;;;;;1.96;100.00;97382.03;5036376;28;20205;-67